Time;durP1;ratioP1;P1;durP2;ratioP2;P2;SDS_P1;SDS_P2;PMS_P1;PMS_P2;Temp;Humidity;BMP_temperature;BMP_pressure;BME280_temperature;BME280_humidity;BME280_pressure;Samples;Min_cycle;Max_cycle;Signal;HPM_P1;HPM_P2
2022/12/21 00:00:19;;;;;;;31.37;15.23;;;;;;;;;;5071075;28;20229;-83
2022/12/21 00:02:47;;;;;;;23.10;12.30;;;;;;;;;;5071602;28;20224;-83
2022/12/21 00:05:14;;;;;;;28.17;14.67;;;;;;;;;;5071428;28;20254;-82
2022/12/21 00:07:41;;;;;;;23.57;12.07;;;;;;;;;;5071510;28;20216;-82
2022/12/21 00:10:10;;;;;;;23.13;12.07;;;;;;;;;;5071049;28;20228;-82
2022/12/21 00:12:37;;;;;;;18.07;10.93;;;;;;;;;;5071625;28;20592;-82
2022/12/21 00:15:04;;;;;;;17.83;9.47;;;;;;;;;;5071433;28;20209;-82
2022/12/21 00:17:32;;;;;;;13.30;6.90;;;;;;;;;;5071737;28;20210;-82
2022/12/21 00:20:00;;;;;;;6.40;4.57;;;;;;;;;;5071666;28;20229;-82
2022/12/21 00:22:27;;;;;;;10.83;7.10;;;;;;;;;;5071276;28;20232;-83
2022/12/21 00:24:54;;;;;;;8.87;6.93;;;;;;;;;;5071984;28;20213;-82
2022/12/21 00:27:21;;;;;;;12.23;7.27;;;;;;;;;;5052094;28;20721;-82
2022/12/21 00:29:48;;;;;;;14.73;6.57;;;;;;;;;;5051677;28;20225;-82
2022/12/21 00:32:15;;;;;;;13.07;7.50;;;;;;;;;;5069488;28;20243;-82
2022/12/21 00:34:42;;;;;;;8.00;5.30;;;;;;;;;;5071548;28;20206;-82
2022/12/21 00:37:10;;;;;;;11.43;8.07;;;;;;;;;;5071130;28;20720;-82
2022/12/21 00:39:39;;;;;;;12.43;7.73;;;;;;;;;;5071337;28;20228;-82
2022/12/21 00:42:06;;;;;;;10.17;7.00;;;;;;;;;;5071065;28;20229;-82
2022/12/21 00:44:33;;;;;;;11.87;7.20;;;;;;;;;;5071341;28;20209;-83
2022/12/21 00:47:00;;;;;;;10.37;6.40;;;;;;;;;;5071142;28;20233;-81
2022/12/21 00:49:27;;;;;;;10.93;6.90;;;;;;;;;;5072361;28;20684;-81
2022/12/21 00:51:54;;;;;;;11.47;8.13;;;;;;;;;;5075254;28;20237;-81
2022/12/21 00:54:23;;;;;;;11.87;7.77;;;;;;;;;;5071433;28;20205;-82
2022/12/21 00:56:50;;;;;;;12.83;9.07;;;;;;;;;;5070984;28;20237;-82
2022/12/21 00:59:17;;;;;;;17.30;10.40;;;;;;;;;;5073888;28;20225;-82
2022/12/21 01:01:44;;;;;;;15.23;11.20;;;;;;;;;;5074579;28;20237;-82
2022/12/21 01:04:11;;;;;;;16.43;10.60;;;;;;;;;;5075407;28;20547;-81
2022/12/21 01:06:38;;;;;;;17.03;10.73;;;;;;;;;;5074592;28;20225;-81
2022/12/21 01:09:06;;;;;;;21.50;12.63;;;;;;;;;;5074999;28;20278;-82
2022/12/21 01:11:34;;;;;;;18.20;11.17;;;;;;;;;;5074180;28;20233;-82
2022/12/21 01:14:01;;;;;;;11.53;8.43;;;;;;;;;;5074825;28;20205;-82
2022/12/21 01:16:29;;;;;;;18.37;10.73;;;;;;;;;;5074374;28;20731;-82
2022/12/21 01:18:56;;;;;;;17.50;11.13;;;;;;;;;;5074448;28;20236;-82
2022/12/21 01:21:24;;;;;;;16.83;11.40;;;;;;;;;;5074590;28;20316;-81
2022/12/21 01:23:52;;;;;;;13.20;9.27;;;;;;;;;;5074848;28;20262;-82
2022/12/21 01:26:19;;;;;;;11.73;7.93;;;;;;;;;;5074484;28;20241;-82
2022/12/21 01:28:47;;;;;;;16.30;8.77;;;;;;;;;;5074230;28;20271;-82
2022/12/21 01:31:15;;;;;;;18.57;9.90;;;;;;;;;;5074155;28;20733;-82
2022/12/21 01:33:42;;;;;;;7.37;5.60;;;;;;;;;;5074396;28;20227;-82
2022/12/21 01:36:10;;;;;;;8.57;6.40;;;;;;;;;;5074007;28;20232;-82
2022/12/21 01:38:39;;;;;;;15.90;10.17;;;;;;;;;;5074330;28;20311;-82
2022/12/21 01:41:06;;;;;;;9.10;6.40;;;;;;;;;;5074222;28;20651;-82
2022/12/21 01:43:44;;;;;;;11.03;7.40;;;;;;;;;;5074118;28;20209;-82
2022/12/21 01:46:13;;;;;;;9.77;6.23;;;;;;;;;;5074078;28;20256;-82
2022/12/21 01:48:42;;;;;;;14.03;9.73;;;;;;;;;;5073995;28;20279;-82
2022/12/21 01:51:10;;;;;;;14.00;10.87;;;;;;;;;;5073750;28;20248;-82
2022/12/21 01:53:39;;;;;;;11.70;8.67;;;;;;;;;;5073900;28;20232;-82
2022/12/21 01:56:09;;;;;;;12.83;9.63;;;;;;;;;;5073619;28;20636;-82
2022/12/21 01:58:36;;;;;;;11.47;7.53;;;;;;;;;;5073570;28;20221;-82
2022/12/21 02:01:05;;;;;;;11.27;7.40;;;;;;;;;;5072626;28;20233;-82
2022/12/21 02:03:35;;;;;;;14.03;10.77;;;;;;;;;;5084010;28;20205;-82
2022/12/21 02:06:04;;;;;;;13.10;10.17;;;;;;;;;;5073271;28;20233;-82
2022/12/21 02:08:31;;;;;;;11.70;8.97;;;;;;;;;;5067117;28;20289;-82
2022/12/21 02:10:59;;;;;;;7.80;6.43;;;;;;;;;;5072238;28;20284;-82
2022/12/21 02:13:26;;;;;;;8.90;5.63;;;;;;;;;;5073157;28;20575;-81
2022/12/21 02:15:58;;;;;;;10.97;8.17;;;;;;;;;;5073493;28;20315;-82
2022/12/21 02:18:31;;;;;;;7.50;5.87;;;;;;;;;;5073090;28;20229;-82
2022/12/21 02:21:05;;;;;;;9.07;7.67;;;;;;;;;;5073408;28;20240;-82
2022/12/21 02:23:48;;;;;;;5.60;4.60;;;;;;;;;;5073934;28;20628;-82
2022/12/21 02:26:23;;;;;;;10.27;7.67;;;;;;;;;;5083690;28;20312;-82
2022/12/21 02:29:03;;;;;;;8.57;7.30;;;;;;;;;;5093651;28;20293;-82
2022/12/21 02:31:35;;;;;;;7.73;6.43;;;;;;;;;;5093554;28;20240;-82
2022/12/21 02:34:09;;;;;;;5.00;4.50;;;;;;;;;;5093794;28;20229;-82
2022/12/21 02:36:41;;;;;;;7.70;5.93;;;;;;;;;;5093294;28;20719;-82
2022/12/21 02:39:13;;;;;;;10.47;7.10;;;;;;;;;;5093474;28;20233;-82
2022/12/21 02:41:50;;;;;;;9.27;7.17;;;;;;;;;;5093006;28;20240;-82
2022/12/21 02:44:24;;;;;;;9.03;5.97;;;;;;;;;;5093990;28;20189;-82
2022/12/21 02:46:58;;;;;;;9.87;7.17;;;;;;;;;;5093122;28;20260;-82
2022/12/21 02:49:26;;;;;;;9.53;7.57;;;;;;;;;;5093127;28;20220;-82
2022/12/21 02:51:56;;;;;;;5.83;5.23;;;;;;;;;;5092852;28;20232;-82
2022/12/21 02:54:24;;;;;;;8.47;6.97;;;;;;;;;;5083566;28;20221;-82
2022/12/21 02:56:51;;;;;;;7.73;6.93;;;;;;;;;;5072188;28;20251;-82
2022/12/21 02:59:20;;;;;;;7.47;6.77;;;;;;;;;;5072596;28;20213;-82
2022/12/21 03:01:52;;;;;;;4.90;3.60;;;;;;;;;;5072136;28;20240;-82
2022/12/21 03:04:30;;;;;;;5.90;5.40;;;;;;;;;;5072693;28;20198;-82
2022/12/21 03:07:04;;;;;;;4.07;3.77;;;;;;;;;;5072468;28;20232;-82
2022/12/21 03:09:40;;;;;;;10.13;8.63;;;;;;;;;;5072282;28;20221;-82
2022/12/21 03:12:10;;;;;;;8.57;6.57;;;;;;;;;;5071935;28;20236;-82
2022/12/21 03:14:43;;;;;;;9.70;6.90;;;;;;;;;;5072639;28;20248;-82
2022/12/21 03:17:12;;;;;;;9.60;7.20;;;;;;;;;;5071693;28;20244;-82
2022/12/21 03:19:45;;;;;;;13.53;9.10;;;;;;;;;;5072404;28;20225;-82
2022/12/21 03:22:16;;;;;;;6.57;5.23;;;;;;;;;;5071820;28;20260;-82
2022/12/21 03:24:47;;;;;;;9.43;8.33;;;;;;;;;;5072615;28;20657;-82
2022/12/21 03:27:17;;;;;;;7.73;6.50;;;;;;;;;;5071902;28;20248;-82
2022/12/21 03:29:47;;;;;;;6.73;5.60;;;;;;;;;;5072331;28;20256;-82
2022/12/21 03:32:15;;;;;;;10.83;7.77;;;;;;;;;;5071448;28;20221;-82
2022/12/21 03:34:47;;;;;;;11.33;8.50;;;;;;;;;;5072168;28;20216;-82
2022/12/21 03:37:17;;;;;;;7.90;7.20;;;;;;;;;;5071710;28;20263;-82
2022/12/21 03:39:47;;;;;;;9.93;7.33;;;;;;;;;;5071483;28;20218;-82
2022/12/21 03:42:17;;;;;;;5.47;4.53;;;;;;;;;;5071678;28;20312;-82
2022/12/21 03:44:46;;;;;;;6.93;6.20;;;;;;;;;;5072411;28;20209;-82
2022/12/21 03:47:15;;;;;;;11.93;8.83;;;;;;;;;;5071618;28;20241;-81
2022/12/21 03:49:46;;;;;;;7.40;6.13;;;;;;;;;;5071583;28;20221;-82
2022/12/21 03:52:15;;;;;;;11.33;7.57;;;;;;;;;;5071553;28;20233;-81
2022/12/21 03:54:44;;;;;;;10.33;8.40;;;;;;;;;;5071716;28;20221;-82
2022/12/21 03:57:12;;;;;;;7.83;6.30;;;;;;;;;;5071620;28;20248;-82
2022/12/21 03:59:42;;;;;;;6.60;5.90;;;;;;;;;;5071817;28;20221;-82
2022/12/21 04:02:11;;;;;;;7.00;5.17;;;;;;;;;;5071621;28;20236;-82
2022/12/21 04:04:41;;;;;;;9.13;7.77;;;;;;;;;;5071670;28;20201;-81
2022/12/21 04:07:11;;;;;;;8.43;6.77;;;;;;;;;;5089065;28;20632;-81
2022/12/21 04:09:38;;;;;;;10.50;8.50;;;;;;;;;;5091715;28;20231;-82
2022/12/21 04:14:50;;;;;;;7.40;5.33;;;;;;;;;;5091963;28;20787;-82
2022/12/21 04:17:17;;;;;;;7.50;6.40;;;;;;;;;;5093190;28;20236;-81
2022/12/21 04:19:59;;;;;;;9.73;8.00;;;;;;;;;;5090739;28;20724;-81
2022/12/21 04:28:10;;;;;;;7.13;6.43;;;;;;;;;;5091875;28;20196;-82
2022/12/21 04:30:37;;;;;;;8.07;6.70;;;;;;;;;;5091498;28;20224;-82
2022/12/21 04:33:05;;;;;;;4.60;3.87;;;;;;;;;;5083714;28;20266;-82
2022/12/21 04:35:32;;;;;;;8.53;6.43;;;;;;;;;;5074957;28;20232;-82
2022/12/21 04:37:59;;;;;;;6.93;6.03;;;;;;;;;;5075671;28;20212;-82
2022/12/21 04:40:26;;;;;;;5.70;5.17;;;;;;;;;;5074606;28;20254;-82
2022/12/21 04:42:53;;;;;;;10.20;7.10;;;;;;;;;;5074957;28;20255;-82
2022/12/21 04:45:20;;;;;;;8.00;7.20;;;;;;;;;;5074687;28;20205;-82
2022/12/21 04:47:47;;;;;;;7.93;7.00;;;;;;;;;;5074909;28;20208;-82
2022/12/21 04:50:14;;;;;;;7.30;6.37;;;;;;;;;;5075328;28;20278;-82
2022/12/21 04:52:41;;;;;;;7.07;6.47;;;;;;;;;;5075138;28;20220;-82
2022/12/21 04:55:10;;;;;;;8.97;6.47;;;;;;;;;;5074887;28;20255;-82
2022/12/21 04:57:37;;;;;;;5.50;4.70;;;;;;;;;;5075622;28;20267;-82
2022/12/21 05:00:05;;;;;;;7.80;7.07;;;;;;;;;;5074646;28;20225;-82
2022/12/21 05:02:32;;;;;;;7.87;6.57;;;;;;;;;;5075327;28;20225;-82
2022/12/21 05:04:59;;;;;;;8.20;6.07;;;;;;;;;;5074831;28;20229;-82
2022/12/21 05:07:26;;;;;;;10.03;6.80;;;;;;;;;;5074696;28;20229;-83
2022/12/21 05:09:53;;;;;;;5.20;4.70;;;;;;;;;;5075060;28;20233;-83
2022/12/21 05:12:22;;;;;;;8.17;6.23;;;;;;;;;;5075662;28;20752;-83
2022/12/21 05:14:49;;;;;;;6.73;5.90;;;;;;;;;;5075324;28;20230;-83
2022/12/21 05:17:16;;;;;;;6.97;6.30;;;;;;;;;;5074414;28;20315;-85
2022/12/21 05:19:46;;;;;;;7.67;6.87;;;;;;;;;;5074169;28;20815;-85
2022/12/21 05:22:15;;;;;;;9.87;6.90;;;;;;;;;;5074369;28;20720;-85
2022/12/21 05:24:43;;;;;;;6.33;5.73;;;;;;;;;;5074781;28;20557;-85
2022/12/21 05:27:10;;;;;;;8.50;7.30;;;;;;;;;;5074203;28;20233;-83
2022/12/21 05:29:38;;;;;;;8.70;7.43;;;;;;;;;;5074304;28;20225;-84
2022/12/21 05:32:05;;;;;;;6.87;6.17;;;;;;;;;;5074082;28;20742;-84
2022/12/21 05:34:32;;;;;;;9.33;7.60;;;;;;;;;;5074613;28;20229;-83
2022/12/21 05:37:00;;;;;;;6.13;4.90;;;;;;;;;;5074038;28;20728;-84
2022/12/21 05:39:27;;;;;;;5.43;4.97;;;;;;;;;;5075196;28;20306;-82
2022/12/21 05:41:54;;;;;;;8.23;6.00;;;;;;;;;;5094076;28;20228;-84
2022/12/21 05:44:21;;;;;;;7.80;7.03;;;;;;;;;;5099275;28;20212;-83
2022/12/21 05:46:49;;;;;;;9.63;7.63;;;;;;;;;;5066487;28;20268;-83
2022/12/21 05:49:16;;;;;;;9.03;7.77;;;;;;;;;;5057821;28;20225;-83
2022/12/21 05:51:43;;;;;;;9.77;8.63;;;;;;;;;;5063475;28;20256;-84
2022/12/21 05:54:10;;;;;;;8.03;6.30;;;;;;;;;;5056925;28;20229;-84
2022/12/21 05:56:37;;;;;;;8.10;7.30;;;;;;;;;;5048850;28;20241;-84
2022/12/21 05:59:04;;;;;;;8.50;6.97;;;;;;;;;;5054180;28;20222;-84
2022/12/21 06:01:31;;;;;;;7.13;5.47;;;;;;;;;;5053967;28;20242;-85
2022/12/21 06:04:00;;;;;;;9.90;6.17;;;;;;;;;;5054184;28;20202;-85
2022/12/21 06:06:27;;;;;;;9.17;7.00;;;;;;;;;;5055448;28;20233;-85
2022/12/21 06:08:54;;;;;;;8.27;7.03;;;;;;;;;;5058698;28;20226;-85
2022/12/21 06:11:22;;;;;;;6.97;5.70;;;;;;;;;;5053527;28;20237;-84
2022/12/21 06:13:49;;;;;;;6.30;5.17;;;;;;;;;;5054068;28;20636;-82
2022/12/21 06:16:18;;;;;;;4.33;3.93;;;;;;;;;;5053569;28;20233;-82
2022/12/21 06:18:45;;;;;;;7.60;6.70;;;;;;;;;;5053780;28;20607;-83
2022/12/21 06:21:15;;;;;;;8.13;6.77;;;;;;;;;;5053974;28;20238;-83
2022/12/21 06:23:42;;;;;;;5.93;5.33;;;;;;;;;;5054043;28;20693;-82
2022/12/21 06:26:11;;;;;;;6.03;5.43;;;;;;;;;;5053657;28;20245;-82
2022/12/21 06:28:39;;;;;;;9.67;7.17;;;;;;;;;;5053451;28;20284;-82
2022/12/21 06:31:07;;;;;;;7.83;7.03;;;;;;;;;;5053383;28;20237;-83
2022/12/21 06:33:34;;;;;;;7.00;5.73;;;;;;;;;;5053984;28;20226;-83
2022/12/21 06:36:01;;;;;;;7.20;6.50;;;;;;;;;;5053473;28;20308;-82
2022/12/21 06:38:31;;;;;;;5.67;5.17;;;;;;;;;;5053560;28;20248;-82
2022/12/21 06:40:59;;;;;;;8.53;6.50;;;;;;;;;;5053683;28;20230;-82
2022/12/21 06:43:26;;;;;;;5.10;4.60;;;;;;;;;;5044655;28;20686;-82
2022/12/21 06:45:54;;;;;;;6.70;6.00;;;;;;;;;;5043819;28;20321;-82
2022/12/21 06:48:21;;;;;;;7.40;6.70;;;;;;;;;;5052548;28;20623;-82
2022/12/21 06:50:51;;;;;;;6.57;5.97;;;;;;;;;;5052545;28;20230;-82
2022/12/21 06:53:18;;;;;;;7.00;5.53;;;;;;;;;;5053100;28;20209;-82
2022/12/21 06:55:47;;;;;;;5.87;5.27;;;;;;;;;;5057832;28;20237;-83
2022/12/21 06:58:14;;;;;;;4.13;3.60;;;;;;;;;;5072410;28;20246;-82
2022/12/21 07:00:42;;;;;;;6.57;6.00;;;;;;;;;;5072178;28;20245;-82
2022/12/21 07:03:09;;;;;;;6.20;5.60;;;;;;;;;;5072789;28;20621;-83
2022/12/21 07:05:36;;;;;;;6.27;5.57;;;;;;;;;;5072223;28;20290;-83
2022/12/21 07:08:03;;;;;;;6.20;5.60;;;;;;;;;;5072615;28;20209;-82
2022/12/21 07:10:30;;;;;;;6.73;6.07;;;;;;;;;;5071803;28;20704;-82
2022/12/21 07:12:59;;;;;;;6.80;4.67;;;;;;;;;;5072364;28;20225;-80
2022/12/21 07:15:26;;;;;;;6.00;5.40;;;;;;;;;;5071748;28;20325;-79
2022/12/21 07:17:53;;;;;;;5.90;5.07;;;;;;;;;;5072279;28;20205;-79
2022/12/21 07:20:20;;;;;;;6.57;5.83;;;;;;;;;;5071707;28;20740;-82
2022/12/21 07:22:47;;;;;;;6.10;4.87;;;;;;;;;;5072305;28;20259;-82
2022/12/21 07:25:14;;;;;;;4.77;4.37;;;;;;;;;;5071728;28;20852;-82
2022/12/21 07:27:41;;;;;;;5.83;5.23;;;;;;;;;;5071803;28;20210;-82
2022/12/21 07:30:10;;;;;;;7.47;5.57;;;;;;;;;;5071579;28;20327;-81
2022/12/21 07:32:37;;;;;;;6.00;5.40;;;;;;;;;;5071955;28;20607;-82
2022/12/21 07:35:05;;;;;;;6.33;5.50;;;;;;;;;;5071402;28;20217;-81
2022/12/21 07:37:32;;;;;;;6.10;5.50;;;;;;;;;;5072014;28;20577;-81
2022/12/21 07:40:00;;;;;;;5.33;4.83;;;;;;;;;;5072194;28;20225;-82
2022/12/21 07:42:27;;;;;;;5.97;5.37;;;;;;;;;;5070866;28;20279;-82
2022/12/21 07:44:54;;;;;;;5.93;5.00;;;;;;;;;;5069883;28;20201;-82
2022/12/21 07:47:22;;;;;;;4.97;3.87;;;;;;;;;;5069626;28;20240;-81
2022/12/21 07:49:49;;;;;;;5.87;5.30;;;;;;;;;;5070211;28;20237;-82
2022/12/21 07:52:16;;;;;;;5.37;4.83;;;;;;;;;;5070652;28;20252;-82
2022/12/21 07:54:43;;;;;;;6.50;5.47;;;;;;;;;;5063359;28;20218;-83
2022/12/21 07:57:10;;;;;;;5.63;5.13;;;;;;;;;;5049343;28;20245;-82
2022/12/21 07:59:37;;;;;;;3.87;3.57;;;;;;;;;;5051501;28;20283;-82
2022/12/21 08:02:04;;;;;;;6.10;5.57;;;;;;;;;;5053892;28;20230;-82
2022/12/21 08:04:32;;;;;;;4.90;4.40;;;;;;;;;;5070502;28;20202;-82
2022/12/21 08:06:59;;;;;;;3.90;3.23;;;;;;;;;;5056859;28;20233;-82
2022/12/21 08:09:26;;;;;;;4.63;4.17;;;;;;;;;;5051368;28;20226;-82
2022/12/21 08:11:54;;;;;;;5.73;4.20;;;;;;;;;;5051196;28;20240;-82
2022/12/21 08:14:21;;;;;;;4.20;3.83;;;;;;;;;;5051578;28;20284;-82
2022/12/21 08:16:48;;;;;;;3.63;3.33;;;;;;;;;;5050998;28;20237;-82
2022/12/21 08:19:15;;;;;;;4.60;4.20;;;;;;;;;;5051179;28;20649;-82
2022/12/21 08:21:44;;;;;;;4.10;3.70;;;;;;;;;;5050905;28;20582;-82
2022/12/21 08:24:11;;;;;;;4.20;3.80;;;;;;;;;;5051753;28;20198;-81
2022/12/21 08:26:38;;;;;;;3.93;3.53;;;;;;;;;;5064845;28;20324;-82
2022/12/21 08:29:06;;;;;;;5.50;5.00;;;;;;;;;;5071086;28;20766;-82
2022/12/21 08:31:33;;;;;;;4.60;4.20;;;;;;;;;;5070793;28;20237;-82
2022/12/21 08:34:00;;;;;;;5.73;4.43;;;;;;;;;;5071215;28;20270;-82
2022/12/21 08:36:27;;;;;;;4.63;4.27;;;;;;;;;;5070807;28;20229;-82
2022/12/21 08:38:57;;;;;;;4.33;3.97;;;;;;;;;;5065002;28;20283;-82
2022/12/21 08:41:24;;;;;;;4.93;4.33;;;;;;;;;;5061599;28;20787;-82
2022/12/21 08:43:51;;;;;;;4.77;4.37;;;;;;;;;;5064662;28;20210;-82
2022/12/21 08:46:18;;;;;;;3.77;3.47;;;;;;;;;;5062267;28;20241;-82
2022/12/21 08:48:46;;;;;;;5.07;4.57;;;;;;;;;;5062110;28;20229;-82
2022/12/21 08:51:13;;;;;;;5.33;4.63;;;;;;;;;;5062941;28;20238;-82
2022/12/21 08:53:40;;;;;;;5.87;4.43;;;;;;;;;;5062906;28;20213;-81
2022/12/21 08:56:08;;;;;;;4.83;4.33;;;;;;;;;;5062620;28;20266;-82
2022/12/21 08:58:36;;;;;;;3.23;3.03;;;;;;;;;;5066361;28;20232;-82
2022/12/21 09:01:03;;;;;;;5.00;4.23;;;;;;;;;;5065328;28;20320;-81
2022/12/21 09:03:30;;;;;;;4.70;4.30;;;;;;;;;;5065240;28;20206;-82
2022/12/21 09:05:58;;;;;;;5.70;4.60;;;;;;;;;;5061447;28;20652;-82
2022/12/21 09:08:25;;;;;;;4.43;4.03;;;;;;;;;;5062912;28;20241;-81
2022/12/21 09:11:00;;;;;;;3.30;3.00;;;;;;;;;;5061579;28;20234;-82
2022/12/21 09:13:29;;;;;;;4.23;3.83;;;;;;;;;;5064457;28;20229;-82
2022/12/21 09:15:56;;;;;;;5.53;4.90;;;;;;;;;;5065253;28;20237;-82
2022/12/21 09:18:23;;;;;;;6.23;4.70;;;;;;;;;;5064986;28;20259;-82
2022/12/21 09:20:50;;;;;;;5.07;4.57;;;;;;;;;;5065960;28;20255;-81
2022/12/21 09:23:17;;;;;;;4.33;3.93;;;;;;;;;;5066658;28;20206;-81
2022/12/21 09:25:44;;;;;;;5.87;4.73;;;;;;;;;;5064428;28;20229;-81
2022/12/21 09:28:11;;;;;;;5.00;4.40;;;;;;;;;;5063308;28;20214;-81
2022/12/21 09:30:40;;;;;;;5.20;4.23;;;;;;;;;;5065246;28;20713;-82
2022/12/21 09:33:07;;;;;;;5.57;4.30;;;;;;;;;;5066812;28;20216;-81
2022/12/21 09:35:36;;;;;;;5.47;4.70;;;;;;;;;;5063681;28;20237;-82
2022/12/21 09:38:04;;;;;;;5.43;4.80;;;;;;;;;;5069119;28;20270;-82
2022/12/21 09:40:31;;;;;;;3.73;2.83;;;;;;;;;;5067599;28;20301;-81
2022/12/21 09:43:02;;;;;;;4.00;3.70;;;;;;;;;;5067747;28;20202;-81
2022/12/21 09:45:37;;;;;;;7.10;4.00;;;;;;;;;;5065373;28;20237;-81
2022/12/21 09:48:06;;;;;;;4.60;4.20;;;;;;;;;;5054301;28;20190;-81
2022/12/21 09:50:42;;;;;;;3.90;3.60;;;;;;;;;;5053893;28;20234;-81
2022/12/21 09:53:13;;;;;;;5.30;4.13;;;;;;;;;;5054113;28;20627;-82
2022/12/21 09:55:44;;;;;;;4.27;3.90;;;;;;;;;;5053323;28;20245;-83
2022/12/21 09:58:13;;;;;;;4.43;4.03;;;;;;;;;;5054044;28;20213;-83
2022/12/21 10:00:44;;;;;;;6.23;4.03;;;;;;;;;;5053416;28;20643;-83
2022/12/21 10:03:41;;;;;;;4.50;3.90;;;;;;;;;;5053974;28;20581;-82
2022/12/21 10:06:18;;;;;;;4.37;3.70;;;;;;;;;;5031120;28;20815;-81
2022/12/21 10:08:51;;;;;;;3.43;3.13;;;;;;;;;;5049650;28;20229;-82
2022/12/21 10:11:22;;;;;;;4.87;4.47;;;;;;;;;;5053478;28;20238;-82
2022/12/21 10:13:54;;;;;;;4.13;3.63;;;;;;;;;;5053905;28;20198;-82
2022/12/21 10:16:30;;;;;;;5.93;4.43;;;;;;;;;;5053268;28;20237;-82
2022/12/21 10:19:00;;;;;;;5.90;4.57;;;;;;;;;;5053320;28;20658;-82
2022/12/21 10:21:33;;;;;;;6.57;4.80;;;;;;;;;;5053413;28;20244;-82
2022/12/21 10:24:00;;;;;;;5.63;4.80;;;;;;;;;;5053501;28;20202;-82
2022/12/21 10:26:28;;;;;;;5.07;4.53;;;;;;;;;;5053142;28;20230;-82
2022/12/21 10:28:59;;;;;;;5.60;5.00;;;;;;;;;;5068760;28;20229;-82
2022/12/21 10:31:28;;;;;;;4.03;3.23;;;;;;;;;;5071772;28;20233;-82
2022/12/21 10:33:57;;;;;;;4.30;3.90;;;;;;;;;;5073221;28;20206;-81
2022/12/21 10:36:27;;;;;;;4.60;4.20;;;;;;;;;;5072782;28;20261;-81
2022/12/21 10:38:56;;;;;;;4.23;3.83;;;;;;;;;;5072749;28;20619;-81
2022/12/21 10:41:24;;;;;;;3.13;2.93;;;;;;;;;;5072972;28;20233;-81
2022/12/21 10:43:53;;;;;;;3.70;3.20;;;;;;;;;;5073377;28;20204;-81
2022/12/21 10:46:21;;;;;;;5.70;3.73;;;;;;;;;;5072739;28;20243;-81
2022/12/21 10:48:49;;;;;;;5.23;4.73;;;;;;;;;;5072432;28;20229;-81
2022/12/21 10:51:18;;;;;;;4.07;3.77;;;;;;;;;;5056164;28;20709;-81
2022/12/21 10:53:59;;;;;;;5.23;4.73;;;;;;;;;;5053149;28;20256;-82
2022/12/21 10:56:27;;;;;;;4.20;3.80;;;;;;;;;;5066269;28;20270;-82
2022/12/21 10:58:54;;;;;;;5.10;4.00;;;;;;;;;;5073200;28;20221;-81
2022/12/21 11:01:24;;;;;;;6.97;4.57;;;;;;;;;;5066877;28;20355;-81
2022/12/21 11:04:06;;;;;;;5.77;4.57;;;;;;;;;;5065270;28;20194;-81
2022/12/21 11:06:33;;;;;;;5.20;4.60;;;;;;;;;;5070771;28;20229;-81
2022/12/21 11:09:01;;;;;;;6.93;4.77;;;;;;;;;;5060929;28;20224;-81
2022/12/21 11:11:30;;;;;;;8.07;4.90;;;;;;;;;;5052588;28;20240;-81
2022/12/21 11:13:59;;;;;;;3.23;3.03;;;;;;;;;;5061969;28;20220;-81
2022/12/21 11:16:28;;;;;;;5.13;4.63;;;;;;;;;;5068907;28;20592;-81
2022/12/21 11:18:58;;;;;;;5.17;4.70;;;;;;;;;;5072002;28;20571;-81
2022/12/21 11:21:31;;;;;;;4.07;3.77;;;;;;;;;;5071726;28;20229;-81
2022/12/21 11:23:59;;;;;;;6.10;5.10;;;;;;;;;;5072308;28;20259;-81
2022/12/21 11:26:30;;;;;;;4.90;3.60;;;;;;;;;;5071852;28;20233;-81
2022/12/21 11:29:02;;;;;;;3.20;3.00;;;;;;;;;;5072288;28;20595;-82
2022/12/21 11:31:30;;;;;;;4.57;4.13;;;;;;;;;;5071614;28;20233;-81
2022/12/21 11:33:57;;;;;;;5.43;4.70;;;;;;;;;;5072276;28;20213;-81
2022/12/21 11:36:24;;;;;;;4.73;4.07;;;;;;;;;;5071369;28;20712;-82
2022/12/21 11:38:53;;;;;;;4.23;3.87;;;;;;;;;;5071756;28;20229;-82
2022/12/21 11:41:22;;;;;;;5.63;4.13;;;;;;;;;;5071385;28;20268;-81
2022/12/21 11:43:51;;;;;;;6.10;4.30;;;;;;;;;;5071750;28;20209;-81
2022/12/21 11:46:26;;;;;;;5.17;4.27;;;;;;;;;;5071592;28;20717;-81
2022/12/21 11:48:58;;;;;;;4.93;4.00;;;;;;;;;;5071980;28;20220;-81
2022/12/21 11:51:30;;;;;;;3.70;3.37;;;;;;;;;;5071457;28;20239;-81
2022/12/21 11:54:09;;;;;;;5.20;3.90;;;;;;;;;;5070521;28;20204;-81
2022/12/21 11:56:37;;;;;;;3.23;3.03;;;;;;;;;;5060744;28;20234;-81
2022/12/21 11:59:19;;;;;;;4.50;4.00;;;;;;;;;;5051520;28;20233;-81
2022/12/21 12:01:54;;;;;;;4.23;3.90;;;;;;;;;;5051134;28;20252;-81
2022/12/21 12:04:39;;;;;;;4.53;4.13;;;;;;;;;;5067072;28;20213;-81
2022/12/21 12:07:16;;;;;;;5.10;4.60;;;;;;;;;;5071017;28;20241;-81
2022/12/21 12:09:57;;;;;;;4.40;4.00;;;;;;;;;;5071052;28;20228;-81
2022/12/21 12:12:29;;;;;;;5.13;4.73;;;;;;;;;;5071110;28;20240;-81
2022/12/21 12:15:07;;;;;;;4.83;4.23;;;;;;;;;;5060807;28;20658;-81
2022/12/21 12:17:39;;;;;;;4.50;4.10;;;;;;;;;;5051322;28;20277;-81
2022/12/21 12:20:13;;;;;;;5.47;4.80;;;;;;;;;;5050863;28;20237;-81
2022/12/21 12:22:48;;;;;;;7.33;5.03;;;;;;;;;;5065765;28;20664;-81
2022/12/21 12:25:32;;;;;;;5.77;4.77;;;;;;;;;;5071018;28;20189;-81
2022/12/21 12:28:12;;;;;;;6.03;5.40;;;;;;;;;;5070997;28;20247;-81
2022/12/21 12:30:46;;;;;;;7.20;4.17;;;;;;;;;;5071070;28;20286;-81
2022/12/21 12:33:14;;;;;;;5.17;4.70;;;;;;;;;;5071420;28;20189;-81
2022/12/21 12:36:00;;;;;;;4.70;4.30;;;;;;;;;;5070925;28;20294;-81
2022/12/21 12:38:33;;;;;;;4.70;4.20;;;;;;;;;;5050762;28;20335;-81
2022/12/21 12:41:09;;;;;;;5.23;4.73;;;;;;;;;;5050685;28;20218;-81
2022/12/21 12:43:42;;;;;;;4.50;4.00;;;;;;;;;;5050896;28;20209;-81
2022/12/21 12:46:14;;;;;;;4.50;3.90;;;;;;;;;;5050730;28;20256;-81
2022/12/21 12:48:45;;;;;;;4.20;3.80;;;;;;;;;;5050858;28;20644;-81
2022/12/21 12:51:16;;;;;;;7.40;4.93;;;;;;;;;;5050678;28;20236;-81
2022/12/21 12:53:49;;;;;;;4.40;4.00;;;;;;;;;;5051811;28;20198;-81
2022/12/21 12:56:24;;;;;;;4.33;3.93;;;;;;;;;;5054727;28;20234;-81
2022/12/21 12:58:53;;;;;;;4.10;3.47;;;;;;;;;;5054570;28;20860;-81
2022/12/21 13:01:26;;;;;;;4.43;4.13;;;;;;;;;;5054646;28;20241;-81
2022/12/21 13:04:06;;;;;;;4.53;3.93;;;;;;;;;;5065397;28;20209;-81
2022/12/21 13:06:40;;;;;;;4.07;3.77;;;;;;;;;;5074130;28;20270;-81
2022/12/21 13:09:13;;;;;;;3.73;3.43;;;;;;;;;;5074736;28;20232;-81
2022/12/21 13:11:44;;;;;;;3.73;3.40;;;;;;;;;;5074243;28;20278;-81
2022/12/21 13:14:16;;;;;;;3.20;2.90;;;;;;;;;;5074197;28;20213;-81
2022/12/21 13:16:46;;;;;;;5.73;3.40;;;;;;;;;;5074023;28;20298;-85
2022/12/21 13:19:15;;;;;;;5.93;3.43;;;;;;;;;;5074214;28;20233;-82
2022/12/21 13:21:43;;;;;;;3.97;3.67;;;;;;;;;;5073864;28;20241;-82
2022/12/21 13:24:12;;;;;;;4.60;3.60;;;;;;;;;;5074490;28;20213;-82
2022/12/21 13:26:41;;;;;;;3.90;3.50;;;;;;;;;;5073497;28;20229;-82
2022/12/21 13:29:12;;;;;;;4.20;3.60;;;;;;;;;;5074023;28;20225;-82
2022/12/21 13:31:43;;;;;;;3.60;3.30;;;;;;;;;;5073617;28;20236;-81
2022/12/21 13:34:15;;;;;;;5.97;3.63;;;;;;;;;;5073921;28;20508;-81
2022/12/21 13:36:44;;;;;;;4.40;3.63;;;;;;;;;;5073976;28;20252;-82
2022/12/21 13:39:14;;;;;;;4.90;3.20;;;;;;;;;;5074223;28;20275;-82
2022/12/21 13:41:44;;;;;;;3.63;3.33;;;;;;;;;;5073546;28;20731;-82
2022/12/21 13:44:13;;;;;;;4.20;3.80;;;;;;;;;;5074243;28;20228;-82
2022/12/21 13:46:42;;;;;;;2.97;2.73;;;;;;;;;;5073464;28;20282;-81
2022/12/21 13:49:18;;;;;;;3.83;3.53;;;;;;;;;;5073459;28;20225;-82
2022/12/21 13:51:49;;;;;;;5.83;3.30;;;;;;;;;;5073425;28;20327;-82
2022/12/21 13:54:21;;;;;;;3.40;3.10;;;;;;;;;;5073727;28;20296;-82
2022/12/21 13:56:55;;;;;;;4.37;3.97;;;;;;;;;;5073181;28;20233;-82
2022/12/21 13:59:27;;;;;;;3.40;3.10;;;;;;;;;;5073878;28;20619;-82
2022/12/21 14:01:58;;;;;;;3.40;3.10;;;;;;;;;;5072950;28;20237;-82
2022/12/21 14:04:36;;;;;;;3.73;3.23;;;;;;;;;;5073690;28;20204;-82
2022/12/21 14:07:10;;;;;;;3.60;2.97;;;;;;;;;;5071757;28;20223;-82
2022/12/21 14:09:44;;;;;;;3.63;2.90;;;;;;;;;;5073026;28;20274;-82
2022/12/21 14:12:24;;;;;;;2.27;2.13;;;;;;;;;;5072413;28;20221;-82
2022/12/21 14:15:01;;;;;;;3.10;2.90;;;;;;;;;;5053486;28;20642;-82
2022/12/21 14:17:29;;;;;;;4.10;3.17;;;;;;;;;;5070227;28;20578;-82
2022/12/21 14:19:58;;;;;;;3.80;3.13;;;;;;;;;;5072928;28;20731;-81
2022/12/21 14:22:36;;;;;;;3.00;2.70;;;;;;;;;;5070300;28;20233;-81
2022/12/21 14:25:08;;;;;;;5.07;2.80;;;;;;;;;;5073250;28;20207;-82
2022/12/21 14:27:36;;;;;;;3.27;2.97;;;;;;;;;;5072970;28;20204;-81
2022/12/21 14:30:14;;;;;;;4.60;2.97;;;;;;;;;;5072500;28;20229;-81
2022/12/21 14:32:41;;;;;;;3.37;2.70;;;;;;;;;;5073365;28;20247;-81
2022/12/21 14:35:26;;;;;;;4.40;3.33;;;;;;;;;;5071620;28;20205;-81
2022/12/21 14:38:08;;;;;;;2.83;2.60;;;;;;;;;;5053264;28;20214;-81
2022/12/21 14:40:50;;;;;;;3.23;2.93;;;;;;;;;;5052209;28;20236;-81
2022/12/21 14:43:19;;;;;;;3.27;2.93;;;;;;;;;;5052937;28;20206;-81
2022/12/21 14:45:47;;;;;;;3.30;3.00;;;;;;;;;;5052321;28;20254;-81
2022/12/21 14:48:41;;;;;;;2.90;2.60;;;;;;;;;;5052706;28;20206;-81
2022/12/21 14:51:10;;;;;;;4.17;2.90;;;;;;;;;;5043572;28;20615;-81
2022/12/21 14:53:39;;;;;;;4.53;3.37;;;;;;;;;;5052733;28;20213;-81
2022/12/21 14:56:08;;;;;;;3.67;3.37;;;;;;;;;;5052191;28;20283;-83
2022/12/21 14:58:35;;;;;;;3.90;3.60;;;;;;;;;;5052751;28;20284;-83
2022/12/21 15:01:09;;;;;;;8.17;5.67;;;;;;;;;;5052355;28;20295;-83
2022/12/21 15:03:41;;;;;;;6.87;5.83;;;;;;;;;;5052193;28;20689;-83